Time;durP1;ratioP1;P1;durP2;ratioP2;P2;SDS_P1;SDS_P2;PMS_P1;PMS_P2;Temp;Humidity;BMP_temperature;BMP_pressure;BME280_temperature;BME280_humidity;BME280_pressure;Samples;Min_cycle;Max_cycle;Signal;HPM_P1;HPM_P2
2023/02/28 00:01:13;;;;;;;6.35;3.45;;;5.30;98.30;;;;;;5053558;28;20216;-69
2023/02/28 00:03:44;;;;;;;4.03;3.50;;;5.30;98.30;;;;;;5057018;28;20171;-68
2023/02/28 00:06:12;;;;;;;3.88;2.97;;;5.30;98.30;;;;;;5089932;28;20204;-68
2023/02/28 00:08:39;;;;;;;4.30;3.60;;;5.20;98.30;;;;;;5091538;28;20187;-69
2023/02/28 00:11:11;;;;;;;6.28;3.90;;;5.20;98.30;;;;;;5083983;28;20196;-69
2023/02/28 00:13:42;;;;;;;4.72;3.85;;;5.20;98.30;;;;;;5064045;28;20171;-69
2023/02/28 00:16:12;;;;;;;4.82;3.42;;;5.20;98.30;;;;;;5090394;28;20179;-69
2023/02/28 00:18:39;;;;;;;6.75;3.95;;;5.20;98.30;;;;;;5091488;28;20214;-68
2023/02/28 00:21:08;;;;;;;4.05;3.65;;;5.20;98.30;;;;;;5054860;28;20513;-69
2023/02/28 00:23:37;;;;;;;5.82;3.92;;;5.20;98.30;;;;;;5091760;28;20203;-69
2023/02/28 00:26:03;;;;;;;4.45;3.13;;;5.20;98.30;;;;;;5091325;28;20192;-69
2023/02/28 00:28:29;;;;;;;6.53;3.20;;;5.20;98.30;;;;;;5091454;28;20206;-69
2023/02/28 00:30:57;;;;;;;4.85;3.63;;;5.20;98.30;;;;;;5058435;28;20191;-69
2023/02/28 00:33:22;;;;;;;6.18;4.00;;;5.20;98.30;;;;;;5060953;28;20182;-69
2023/02/28 00:35:51;;;;;;;5.22;3.25;;;5.20;98.30;;;;;;5077316;28;20198;-69
2023/02/28 00:38:17;;;;;;;5.63;3.60;;;5.20;98.30;;;;;;5060789;28;20558;-69
2023/02/28 00:40:43;;;;;;;4.45;3.70;;;5.20;98.30;;;;;;5077226;28;20608;-68
2023/02/28 00:43:10;;;;;;;3.58;3.25;;;5.20;98.30;;;;;;5095363;28;20172;-69
2023/02/28 00:45:41;;;;;;;5.90;4.03;;;5.10;98.20;;;;;;5077129;28;20188;-69
2023/02/28 00:48:07;;;;;;;7.85;3.60;;;5.10;98.20;;;;;;5076957;28;20199;-69
2023/02/28 00:50:33;;;;;;;5.57;3.37;;;5.10;98.30;;;;;;5094101;28;20163;-69
2023/02/28 00:53:01;;;;;;;4.55;4.05;;;5.10;98.20;;;;;;5093772;28;20479;-69
2023/02/28 00:55:27;;;;;;;5.13;3.50;;;5.10;98.20;;;;;;5076753;28;20171;-69
2023/02/28 00:57:53;;;;;;;6.70;3.47;;;5.10;98.20;;;;;;5076947;28;20203;-69
2023/02/28 01:00:20;;;;;;;4.75;3.92;;;5.10;98.30;;;;;;5093611;28;20664;-69
2023/02/28 01:02:49;;;;;;;5.00;3.10;;;5.10;98.20;;;;;;5076713;28;20188;-69
2023/02/28 01:05:15;;;;;;;3.70;3.20;;;5.10;98.30;;;;;;5043672;28;20292;-69
2023/02/28 01:07:41;;;;;;;7.20;3.47;;;5.10;98.30;;;;;;5059975;28;20553;-69
2023/02/28 01:10:10;;;;;;;4.30;3.50;;;5.10;98.30;;;;;;5060117;28;20271;-69
2023/02/28 01:12:36;;;;;;;4.00;3.60;;;5.10;98.30;;;;;;5060254;28;20409;-69
2023/02/28 01:15:02;;;;;;;3.43;3.13;;;5.10;98.30;;;;;;5076497;28;20532;-69
2023/02/28 01:17:30;;;;;;;6.93;4.03;;;5.00;98.30;;;;;;5093429;28;20441;-69
2023/02/28 01:20:04;;;;;;;5.90;4.07;;;5.00;98.30;;;;;;5092896;28;20372;-69
2023/02/28 01:22:32;;;;;;;4.95;3.38;;;5.00;98.20;;;;;;5094343;28;20210;-69
2023/02/28 01:25:01;;;;;;;5.22;3.03;;;5.00;98.30;;;;;;5076703;28;20168;-69
2023/02/28 01:27:33;;;;;;;4.82;4.03;;;5.00;98.30;;;;;;5059350;28;20676;-69
2023/02/28 01:29:59;;;;;;;3.85;3.47;;;5.00;98.30;;;;;;5093370;28;20284;-69
2023/02/28 01:32:27;;;;;;;6.55;3.92;;;5.00;98.30;;;;;;5076285;28;20671;-68
2023/02/28 01:34:54;;;;;;;5.65;3.70;;;5.00;98.30;;;;;;5090737;28;20210;-69
2023/02/28 01:37:20;;;;;;;3.25;2.95;;;5.00;98.60;;;;;;5072982;28;20299;-69
2023/02/28 01:39:48;;;;;;;5.00;3.50;;;5.00;98.30;;;;;;5076320;28;20187;-69
2023/02/28 01:42:14;;;;;;;3.75;3.40;;;5.00;98.30;;;;;;5074695;28;20179;-68
2023/02/28 01:45:02;;;;;;;4.40;3.35;;;5.00;98.30;;;;;;5092404;28;20276;-69
2023/02/28 01:47:36;;;;;;;4.97;3.70;;;5.00;98.30;;;;;;5075717;28;20215;-68
2023/02/28 01:50:09;;;;;;;5.07;3.80;;;4.90;98.30;;;;;;5058958;28;20210;-69
2023/02/28 01:52:36;;;;;;;5.47;4.03;;;4.90;98.40;;;;;;5059272;28;20181;-69
2023/02/28 01:55:06;;;;;;;6.15;3.58;;;4.90;98.30;;;;;;5055316;28;20233;-69
2023/02/28 01:57:40;;;;;;;8.30;3.40;;;4.90;98.40;;;;;;5046030;28;20477;-69
2023/02/28 02:00:15;;;;;;;6.03;3.67;;;4.90;98.40;;;;;;5075966;28;20190;-69
2023/02/28 02:02:50;;;;;;;4.95;3.40;;;4.90;98.40;;;;;;5059417;28;20214;-69
2023/02/28 02:05:28;;;;;;;5.70;3.53;;;4.90;98.40;;;;;;5059437;28;20562;-69
2023/02/28 02:08:13;;;;;;;4.57;3.33;;;4.90;98.40;;;;;;5075751;28;20821;-69
2023/02/28 02:10:47;;;;;;;6.55;3.58;;;4.90;98.40;;;;;;5075109;28;20229;-69
2023/02/28 02:13:43;;;;;;;4.47;3.90;;;4.90;98.40;;;;;;5074818;28;20179;-69
2023/02/28 02:16:18;;;;;;;5.43;3.90;;;4.90;98.40;;;;;;5092038;28;20283;-71
2023/02/28 02:18:53;;;;;;;3.65;3.20;;;4.80;98.40;;;;;;5075439;28;20705;-71
2023/02/28 02:21:52;;;;;;;5.35;3.72;;;4.90;98.40;;;;;;5091437;28;20194;-71
2023/02/28 02:24:39;;;;;;;3.55;3.17;;;4.80;98.40;;;;;;5075048;28;20184;-71
2023/02/28 02:27:07;;;;;;;4.22;3.63;;;4.80;98.40;;;;;;5074919;28;20264;-71
2023/02/28 02:29:46;;;;;;;5.22;3.60;;;4.80;98.40;;;;;;5092075;28;20163;-70
2023/02/28 02:32:12;;;;;;;4.05;3.42;;;4.80;98.40;;;;;;5091177;28;20241;-71
2023/02/28 02:34:48;;;;;;;4.88;3.13;;;4.80;98.40;;;;;;5055536;28;20156;-71
2023/02/28 02:37:34;;;;;;;4.93;3.22;;;4.80;98.40;;;;;;5038130;28;20742;-70
2023/02/28 02:40:34;;;;;;;3.75;3.35;;;4.80;98.40;;;;;;5074640;28;20260;-71
2023/02/28 02:43:11;;;;;;;4.07;3.03;;;4.80;98.40;;;;;;5037300;28;20191;-71
2023/02/28 02:45:54;;;;;;;4.20;3.25;;;4.80;98.40;;;;;;5058050;28;20254;-70
2023/02/28 02:48:30;;;;;;;6.32;3.60;;;4.80;98.50;;;;;;5091270;28;20199;-71
2023/02/28 02:51:11;;;;;;;4.63;3.20;;;4.80;98.40;;;;;;5090874;28;20530;-70
2023/02/28 02:53:52;;;;;;;4.70;3.55;;;4.80;98.80;;;;;;5091571;28;20202;-70
2023/02/28 02:56:26;;;;;;;5.30;2.78;;;4.70;98.40;;;;;;5074511;28;20536;-71
2023/02/28 02:59:00;;;;;;;6.10;3.30;;;4.80;98.50;;;;;;5057008;28;20305;-71
2023/02/28 03:01:30;;;;;;;4.90;2.83;;;4.70;98.40;;;;;;5057247;28;20184;-71
2023/02/28 03:04:09;;;;;;;5.43;3.63;;;4.70;98.40;;;;;;5041339;28;20651;-70
2023/02/28 03:06:37;;;;;;;6.03;2.97;;;4.70;98.40;;;;;;5089833;28;20207;-71
2023/02/28 03:09:04;;;;;;;3.97;3.10;;;4.70;98.40;;;;;;5072240;28;20193;-70
2023/02/28 03:11:38;;;;;;;3.22;2.85;;;4.70;98.50;;;;;;5090039;28;20222;-71
2023/02/28 03:14:18;;;;;;;3.90;2.80;;;4.70;98.40;;;;;;5073762;28;20265;-70
2023/02/28 03:16:55;;;;;;;4.43;2.60;;;4.70;98.40;;;;;;5073075;28;20234;-71
2023/02/28 03:19:26;;;;;;;3.67;2.60;;;4.70;98.40;;;;;;5072712;28;20214;-70
2023/02/28 03:22:23;;;;;;;3.88;2.75;;;4.70;98.40;;;;;;5091913;28;20198;-71
2023/02/28 03:25:41;;;;;;;4.13;2.97;;;4.70;98.40;;;;;;5074186;28;20270;-70
2023/02/28 03:28:27;;;;;;;4.28;2.75;;;4.70;98.80;;;;;;5071324;28;20191;-71
2023/02/28 03:31:14;;;;;;;8.00;3.45;;;4.60;98.40;;;;;;5067824;28;20290;-70
2023/02/28 03:34:16;;;;;;;3.40;2.80;;;4.70;98.40;;;;;;5074197;28;20269;-70
2023/02/28 03:36:53;;;;;;;4.22;3.05;;;4.70;98.40;;;;;;5091279;28;20233;-70
2023/02/28 03:39:21;;;;;;;4.60;2.83;;;4.60;98.40;;;;;;5074066;28;20183;-70
2023/02/28 03:42:03;;;;;;;4.13;3.40;;;4.60;98.40;;;;;;5056921;28;20182;-70
2023/02/28 03:44:41;;;;;;;3.85;3.17;;;4.60;98.40;;;;;;5074105;28;20233;-70
2023/02/28 03:47:35;;;;;;;3.10;2.75;;;4.60;98.40;;;;;;5058091;28;20309;-71
2023/02/28 03:50:09;;;;;;;4.00;3.10;;;4.60;98.40;;;;;;5074229;28;20258;-70
2023/02/28 03:52:40;;;;;;;4.03;2.90;;;4.60;98.40;;;;;;5091634;28;20241;-71
2023/02/28 03:55:10;;;;;;;4.13;2.67;;;4.60;98.40;;;;;;5090854;28;20600;-70
2023/02/28 03:58:04;;;;;;;3.55;3.25;;;4.60;98.40;;;;;;5073459;28;20711;-71
2023/02/28 04:00:35;;;;;;;3.95;3.33;;;4.60;98.40;;;;;;5072862;28;20225;-70
2023/02/28 04:03:04;;;;;;;3.65;3.28;;;4.60;98.40;;;;;;5090805;28;20202;-71
2023/02/28 04:05:33;;;;;;;4.47;3.05;;;4.60;98.40;;;;;;5074634;28;20195;-70
2023/02/28 04:08:07;;;;;;;3.72;3.10;;;4.60;98.40;;;;;;5077860;28;20191;-70
2023/02/28 04:10:36;;;;;;;3.58;2.63;;;4.60;98.70;;;;;;5086231;28;20185;-70
2023/02/28 04:13:02;;;;;;;3.95;2.85;;;4.60;98.30;;;;;;5093844;28;20175;-70
2023/02/28 04:15:33;;;;;;;3.78;3.30;;;4.50;98.30;;;;;;5077298;28;20679;-70
2023/02/28 04:18:01;;;;;;;3.38;2.92;;;4.50;98.30;;;;;;5077669;28;20219;-70
2023/02/28 04:20:29;;;;;;;3.92;3.20;;;4.50;98.30;;;;;;5095543;28;20195;-71
2023/02/28 04:22:58;;;;;;;4.20;2.90;;;4.50;98.30;;;;;;5095020;28;20183;-70
2023/02/28 04:25:24;;;;;;;3.38;2.80;;;4.50;98.30;;;;;;5095696;28;20159;-70
2023/02/28 04:27:52;;;;;;;7.18;3.13;;;4.50;98.30;;;;;;5077210;28;20207;-70
2023/02/28 04:30:18;;;;;;;4.40;3.55;;;4.50;98.30;;;;;;5077533;28;20175;-71
2023/02/28 04:32:46;;;;;;;3.40;3.10;;;4.50;98.30;;;;;;5077239;28;20202;-70
2023/02/28 04:35:15;;;;;;;4.20;3.38;;;4.50;98.30;;;;;;5095499;28;20176;-70
2023/02/28 04:37:43;;;;;;;3.83;2.95;;;4.50;98.30;;;;;;5094009;28;20203;-70
2023/02/28 04:40:10;;;;;;;3.60;2.60;;;4.50;98.30;;;;;;5077327;28;20202;-71
2023/02/28 04:42:38;;;;;;;2.92;2.35;;;4.50;98.30;;;;;;5076908;28;20182;-70
2023/02/28 04:45:10;;;;;;;3.47;3.17;;;4.50;98.30;;;;;;5077369;28;20252;-71
2023/02/28 04:47:36;;;;;;;3.92;2.83;;;4.40;98.30;;;;;;5060139;28;20246;-70
2023/02/28 04:50:03;;;;;;;3.80;3.03;;;4.40;98.30;;;;;;5094966;28;20187;-70
2023/02/28 04:52:33;;;;;;;5.07;3.20;;;4.40;98.30;;;;;;5076642;28;20171;-71
2023/02/28 04:55:05;;;;;;;4.88;3.25;;;4.40;98.20;;;;;;5095584;28;20536;-70
2023/02/28 04:57:34;;;;;;;3.10;2.58;;;4.40;98.20;;;;;;5076736;28;20635;-70
2023/02/28 05:00:06;;;;;;;3.47;2.92;;;4.40;98.20;;;;;;5077284;28;20175;-71
2023/02/28 05:02:39;;;;;;;5.38;2.90;;;4.40;98.20;;;;;;5076675;28;20593;-70
2023/02/28 05:05:11;;;;;;;2.58;2.38;;;4.40;98.20;;;;;;5095224;28;20171;-70
2023/02/28 05:07:44;;;;;;;3.17;2.88;;;4.40;98.20;;;;;;5075763;28;20214;-71
2023/02/28 05:10:16;;;;;;;6.18;3.67;;;4.40;98.20;;;;;;5076143;28;20520;-71
2023/02/28 05:12:41;;;;;;;3.90;2.53;;;4.40;98.20;;;;;;5076417;28;20255;-70
2023/02/28 05:15:13;;;;;;;3.10;2.80;;;4.40;98.20;;;;;;5076756;28;20278;-71
2023/02/28 05:17:40;;;;;;;6.05;2.60;;;4.30;98.20;;;;;;5076260;28;21177;-71
2023/02/28 05:20:13;;;;;;;3.28;2.55;;;4.30;98.20;;;;;;5087278;28;20656;-71
2023/02/28 05:22:47;;;;;;;5.28;3.10;;;4.40;98.20;;;;;;5089058;28;20205;-72
2023/02/28 05:25:18;;;;;;;3.33;2.92;;;4.30;98.20;;;;;;5056049;28;20305;-73
2023/02/28 05:27:44;;;;;;;3.63;3.08;;;4.30;98.20;;;;;;5064981;28;20232;-71
2023/02/28 05:30:13;;;;;;;4.28;2.78;;;4.30;98.20;;;;;;5059906;28;20204;-71
2023/02/28 05:32:43;;;;;;;3.63;2.70;;;4.30;98.10;;;;;;5076380;28;20636;-72
2023/02/28 05:35:11;;;;;;;3.95;3.15;;;4.30;98.20;;;;;;5094423;28;20194;-73
2023/02/28 05:37:39;;;;;;;4.15;2.70;;;4.30;98.20;;;;;;5058738;28;20290;-71
2023/02/28 05:40:11;;;;;;;2.95;2.70;;;4.30;98.20;;;;;;5059763;28;20580;-72
2023/02/28 05:42:37;;;;;;;8.63;2.72;;;4.30;98.20;;;;;;5076174;28;20197;-71
2023/02/28 05:45:06;;;;;;;3.15;2.67;;;4.30;98.20;;;;;;5076446;28;20206;-71
2023/02/28 05:47:36;;;;;;;3.55;2.85;;;4.30;98.20;;;;;;5092340;28;20211;-72
2023/02/28 05:50:05;;;;;;;4.75;2.90;;;4.30;98.20;;;;;;5072808;28;20215;-71
2023/02/28 05:52:32;;;;;;;5.90;2.80;;;4.30;98.20;;;;;;5058408;28;20182;-71
2023/02/28 05:54:58;;;;;;;3.03;2.40;;;4.20;98.10;;;;;;5075465;28;20179;-71
2023/02/28 05:57:24;;;;;;;3.78;3.10;;;4.20;98.10;;;;;;5093194;28;20214;-71
2023/02/28 05:59:52;;;;;;;3.47;2.80;;;4.20;98.10;;;;;;5093419;28;20281;-71
2023/02/28 06:02:19;;;;;;;3.05;2.65;;;4.20;98.10;;;;;;5075773;28;20178;-70
2023/02/28 06:04:45;;;;;;;4.43;3.10;;;4.20;98.10;;;;;;5057330;28;20209;-71
2023/02/28 06:07:11;;;;;;;3.53;2.60;;;4.20;98.10;;;;;;5075323;28;20214;-70
2023/02/28 06:09:39;;;;;;;3.88;2.97;;;4.20;98.10;;;;;;5090363;28;20185;-70
2023/02/28 06:12:09;;;;;;;3.42;2.63;;;4.20;98.10;;;;;;5075038;28;20215;-70
2023/02/28 06:14:36;;;;;;;3.00;2.67;;;4.20;98.10;;;;;;5093642;28;20242;-70
2023/02/28 06:17:05;;;;;;;3.70;3.08;;;4.20;98.10;;;;;;5092021;28;20270;-71
2023/02/28 06:19:31;;;;;;;3.50;2.40;;;4.20;98.10;;;;;;5093194;28;20178;-70
2023/02/28 06:21:58;;;;;;;5.87;3.07;;;4.20;98.10;;;;;;5075659;28;20176;-70
2023/02/28 06:24:27;;;;;;;5.00;2.90;;;4.20;98.10;;;;;;5074342;28;20448;-70
2023/02/28 06:26:53;;;;;;;3.33;3.03;;;4.20;98.10;;;;;;5075017;28;20206;-70
2023/02/28 06:29:19;;;;;;;5.70;3.13;;;4.20;98.00;;;;;;5058448;28;20179;-68
2023/02/28 06:31:46;;;;;;;3.58;2.97;;;4.20;98.00;;;;;;5090489;28;20417;-70
2023/02/28 06:34:13;;;;;;;3.70;3.00;;;4.10;98.00;;;;;;5092797;28;20254;-69
2023/02/28 06:36:41;;;;;;;3.33;2.95;;;4.10;98.00;;;;;;5092200;28;20711;-70
2023/02/28 06:39:08;;;;;;;4.20;2.45;;;4.10;98.00;;;;;;5058384;28;20202;-69
2023/02/28 06:41:37;;;;;;;3.20;2.83;;;4.10;98.00;;;;;;5074532;28;20258;-70
2023/02/28 06:44:17;;;;;;;4.88;2.40;;;4.10;98.00;;;;;;5075383;28;20175;-70
2023/02/28 06:46:44;;;;;;;4.40;2.92;;;4.10;98.00;;;;;;5092851;28;20179;-69
2023/02/28 06:49:11;;;;;;;4.57;2.80;;;4.10;98.00;;;;;;5092653;28;20228;-70
2023/02/28 06:51:44;;;;;;;4.20;2.65;;;4.10;98.00;;;;;;5092791;28;20163;-70
2023/02/28 06:54:11;;;;;;;3.50;2.50;;;4.10;98.00;;;;;;5058099;28;20182;-70
2023/02/28 06:56:37;;;;;;;4.45;3.42;;;4.10;98.00;;;;;;5074390;28;20257;-70
2023/02/28 06:59:05;;;;;;;3.80;3.10;;;4.10;98.00;;;;;;5074247;28;20218;-70
2023/02/28 07:01:33;;;;;;;4.50;3.05;;;4.10;98.00;;;;;;5074699;28;20171;-69
2023/02/28 07:04:00;;;;;;;3.80;2.85;;;4.00;97.90;;;;;;5091738;28;20536;-70
2023/02/28 07:06:26;;;;;;;3.55;2.80;;;4.10;98.00;;;;;;5074442;28;20293;-70
2023/02/28 07:08:53;;;;;;;3.65;2.60;;;4.10;98.00;;;;;;5072771;28;20678;-69
2023/02/28 07:11:22;;;;;;;4.38;3.20;;;4.00;98.00;;;;;;5090687;28;20184;-71
2023/02/28 07:13:50;;;;;;;6.13;2.97;;;4.00;97.90;;;;;;5074379;28;20733;-70
2023/02/28 07:16:16;;;;;;;3.90;3.20;;;4.00;97.90;;;;;;5092410;28;20228;-69
2023/02/28 07:18:42;;;;;;;3.60;2.60;;;4.00;98.30;;;;;;5074413;28;20210;-69
2023/02/28 07:21:11;;;;;;;3.65;2.75;;;4.00;98.00;;;;;;5089126;28;20210;-68
2023/02/28 07:23:38;;;;;;;3.45;2.65;;;4.00;98.00;;;;;;5092956;28;20191;-68
2023/02/28 07:26:06;;;;;;;2.90;2.58;;;4.00;98.00;;;;;;5075506;28;20302;-68
2023/02/28 07:28:32;;;;;;;3.50;2.63;;;4.00;98.00;;;;;;5075513;28;20191;-68
2023/02/28 07:31:05;;;;;;;4.70;3.00;;;4.00;98.00;;;;;;5093562;28;20676;-68
2023/02/28 07:33:32;;;;;;;3.35;2.50;;;4.00;98.00;;;;;;5058946;28;20493;-68
2023/02/28 07:36:14;;;;;;;8.02;2.80;;;4.00;98.00;;;;;;5058900;28;20178;-68
2023/02/28 07:38:43;;;;;;;3.58;2.75;;;4.00;98.00;;;;;;5075459;28;20210;-68
2023/02/28 07:41:10;;;;;;;3.60;3.10;;;4.00;98.00;;;;;;5074078;28;20187;-68
2023/02/28 07:43:38;;;;;;;2.50;2.30;;;4.00;98.00;;;;;;5092508;28;20178;-68
2023/02/28 07:46:09;;;;;;;6.82;2.95;;;4.00;98.10;;;;;;5075342;28;20184;-68
2023/02/28 07:48:35;;;;;;;4.28;3.00;;;3.90;98.00;;;;;;5075391;28;20222;-68
2023/02/28 07:51:01;;;;;;;3.20;2.83;;;4.00;98.10;;;;;;5075267;28;20160;-68
2023/02/28 07:53:28;;;;;;;2.50;2.17;;;4.00;98.10;;;;;;5093220;28;20177;-68
2023/02/28 07:55:56;;;;;;;4.07;2.97;;;4.00;98.10;;;;;;5075100;28;20741;-68
2023/02/28 07:58:22;;;;;;;3.60;3.00;;;3.90;98.10;;;;;;5091786;28;20281;-68
2023/02/28 08:00:48;;;;;;;3.15;2.80;;;3.90;98.10;;;;;;5090971;28;20597;-68
2023/02/28 08:03:19;;;;;;;3.67;2.95;;;3.90;98.10;;;;;;5092875;28;20182;-68
2023/02/28 08:05:47;;;;;;;4.32;2.92;;;4.00;98.10;;;;;;5058396;28;20190;-68
2023/02/28 08:08:14;;;;;;;4.35;3.42;;;3.90;98.10;;;;;;5048682;28;20199;-68
2023/02/28 08:10:44;;;;;;;3.50;2.50;;;3.90;98.00;;;;;;5054963;28;20168;-68
2023/02/28 08:13:13;;;;;;;3.25;2.85;;;3.90;98.00;;;;;;5041406;28;20191;-68
2023/02/28 08:15:41;;;;;;;2.83;2.63;;;4.00;98.10;;;;;;5074739;28;20547;-68
2023/02/28 08:18:08;;;;;;;3.38;2.72;;;3.90;98.10;;;;;;5092141;28;20433;-68
2023/02/28 08:20:36;;;;;;;4.50;2.60;;;4.00;98.20;;;;;;5070755;28;20210;-68
2023/02/28 08:23:02;;;;;;;3.50;3.00;;;3.90;98.20;;;;;;5054562;28;20179;-68
2023/02/28 08:25:31;;;;;;;3.38;2.80;;;3.90;98.10;;;;;;5061019;28;20456;-68
2023/02/28 08:27:56;;;;;;;3.38;3.08;;;3.90;98.10;;;;;;5092535;28;20580;-68
2023/02/28 08:30:23;;;;;;;3.50;2.77;;;3.90;98.10;;;;;;5053710;28;20176;-68
2023/02/28 08:32:49;;;;;;;4.93;2.60;;;3.90;98.00;;;;;;5054282;28;20524;-68
2023/02/28 08:35:15;;;;;;;5.22;2.85;;;3.90;98.00;;;;;;5054618;28;20167;-68
2023/02/28 08:37:43;;;;;;;3.13;2.83;;;3.90;98.10;;;;;;5072234;28;20196;-68
2023/02/28 08:40:10;;;;;;;3.10;2.70;;;3.90;98.00;;;;;;5054427;28;20471;-68
2023/02/28 08:42:36;;;;;;;3.38;2.63;;;3.90;98.00;;;;;;5072053;28;20626;-68
2023/02/28 08:45:02;;;;;;;3.72;2.97;;;3.90;98.00;;;;;;5071917;28;20203;-68
2023/02/28 08:47:28;;;;;;;3.47;3.10;;;3.90;98.00;;;;;;5071804;28;20720;-68
2023/02/28 08:49:56;;;;;;;4.03;3.30;;;3.90;98.00;;;;;;5072099;28;20179;-68
2023/02/28 08:52:24;;;;;;;5.85;3.10;;;3.90;97.90;;;;;;5040299;28;20823;-68
2023/02/28 08:54:50;;;;;;;4.77;2.60;;;3.90;97.90;;;;;;5075924;28;20247;-68
2023/02/28 08:57:16;;;;;;;4.05;2.95;;;3.90;97.90;;;;;;5075093;28;20476;-68
2023/02/28 08:59:45;;;;;;;4.68;2.95;;;3.90;97.90;;;;;;5074278;28;20648;-68
2023/02/28 09:02:14;;;;;;;4.00;2.95;;;3.90;97.90;;;;;;5057895;28;20188;-68
2023/02/28 09:04:45;;;;;;;3.38;3.08;;;4.00;98.00;;;;;;5057645;28;20629;-68
2023/02/28 09:07:11;;;;;;;3.53;3.20;;;3.90;97.90;;;;;;5057647;28;20576;-68
2023/02/28 09:09:53;;;;;;;3.42;2.38;;;3.90;98.00;;;;;;5075086;28;20270;-68
2023/02/28 09:12:29;;;;;;;4.22;2.92;;;3.90;98.00;;;;;;5060723;28;20746;-68
2023/02/28 09:14:55;;;;;;;3.25;2.47;;;3.90;98.00;;;;;;5095744;28;20164;-68
2023/02/28 09:17:24;;;;;;;4.17;2.70;;;3.90;98.00;;;;;;5077851;28;20721;-68
2023/02/28 09:19:50;;;;;;;3.58;2.88;;;3.90;98.00;;;;;;5095718;28;20405;-68
2023/02/28 09:22:16;;;;;;;3.37;2.90;;;3.90;98.00;;;;;;5077038;28;20185;-69
2023/02/28 09:24:42;;;;;;;3.55;2.88;;;4.00;98.00;;;;;;5077374;28;20439;-68
2023/02/28 09:27:08;;;;;;;3.17;2.60;;;4.00;97.90;;;;;;5060638;28;20210;-68
2023/02/28 09:29:37;;;;;;;3.42;2.70;;;4.00;97.90;;;;;;5077538;28;20535;-68
2023/02/28 09:32:05;;;;;;;3.20;2.70;;;4.00;97.80;;;;;;5060718;28;20572;-68
2023/02/28 09:34:31;;;;;;;3.50;3.20;;;4.00;97.70;;;;;;5077452;28;20600;-68
2023/02/28 09:36:57;;;;;;;2.78;2.45;;;4.00;97.70;;;;;;5095221;28;20539;-68
2023/02/28 09:39:26;;;;;;;2.53;2.28;;;4.10;97.70;;;;;;5077116;28;20698;-68
2023/02/28 09:41:55;;;;;;;4.18;2.83;;;4.00;97.60;;;;;;5095172;28;20195;-68
2023/02/28 09:44:40;;;;;;;3.45;2.50;;;4.10;97.70;;;;;;5077140;28;20176;-68
2023/02/28 09:47:14;;;;;;;3.13;2.67;;;4.10;97.50;;;;;;5077362;28;20215;-68
2023/02/28 09:49:46;;;;;;;3.55;2.90;;;4.10;97.60;;;;;;5047720;28;20208;-69
2023/02/28 09:52:32;;;;;;;4.50;3.25;;;4.10;97.50;;;;;;5040559;28;20180;-69
2023/02/28 09:55:22;;;;;;;3.15;2.78;;;4.10;97.50;;;;;;5040434;28;20195;-68
2023/02/28 09:57:50;;;;;;;3.53;2.63;;;4.10;97.40;;;;;;5078573;28;20202;-68
2023/02/28 10:00:17;;;;;;;6.63;3.10;;;4.10;97.30;;;;;;5056101;28;20184;-69
2023/02/28 10:03:06;;;;;;;3.38;2.95;;;4.20;97.30;;;;;;5040239;28;20176;-68
2023/02/28 10:05:42;;;;;;;3.63;2.50;;;4.20;97.20;;;;;;5057017;28;20287;-68
2023/02/28 10:08:25;;;;;;;2.80;2.42;;;4.20;97.10;;;;;;5074391;28;20556;-69
2023/02/28 10:11:01;;;;;;;3.63;2.90;;;4.20;97.10;;;;;;5040145;28;20640;-69
2023/02/28 10:13:33;;;;;;;2.70;2.50;;;4.30;96.90;;;;;;5056399;28;20252;-68
2023/02/28 10:16:13;;;;;;;3.50;2.60;;;4.30;96.80;;;;;;5040130;28;20239;-68
2023/02/28 10:18:47;;;;;;;3.50;3.20;;;4.30;96.60;;;;;;5074166;28;20196;-68
2023/02/28 10:21:28;;;;;;;3.45;2.60;;;4.30;96.40;;;;;;5055379;28;20186;-68
2023/02/28 10:24:03;;;;;;;3.97;2.88;;;4.40;96.20;;;;;;5113904;22;20232;-73
2023/02/28 10:26:32;;;;;;;2.83;2.38;;;4.40;96.10;;;;;;5022331;28;20206;-73
2023/02/28 10:28:58;;;;;;;3.65;3.03;;;4.40;96.10;;;;;;5028898;28;20576;-72
2023/02/28 10:31:24;;;;;;;3.40;2.83;;;4.40;96.10;;;;;;5010714;28;20194;-72
2023/02/28 10:33:50;;;;;;;2.60;2.40;;;4.40;96.00;;;;;;5013511;28;20653;-72
2023/02/28 10:36:20;;;;;;;5.07;3.10;;;4.40;96.00;;;;;;5013526;28;20158;-72
2023/02/28 10:38:50;;;;;;;2.45;2.25;;;4.40;96.00;;;;;;5028513;28;20468;-73
2023/02/28 10:41:36;;;;;;;3.80;2.70;;;4.40;95.80;;;;;;5012512;28;20188;-72
2023/02/28 10:44:20;;;;;;;2.42;1.90;;;4.40;95.70;;;;;;5012008;28;20205;-73
2023/02/28 10:46:51;;;;;;;3.17;2.33;;;4.50;95.80;;;;;;5012017;28;20696;-73
2023/02/28 10:49:28;;;;;;;2.97;2.20;;;4.50;95.70;;;;;;5012501;28;20175;-73
2023/02/28 10:51:59;;;;;;;2.58;2.38;;;4.50;95.80;;;;;;5011516;28;20188;-73
2023/02/28 10:54:37;;;;;;;2.60;2.40;;;4.50;95.70;;;;;;5009013;28;20174;-73
2023/02/28 10:57:28;;;;;;;2.78;2.20;;;4.50;95.70;;;;;;5008575;28;20203;-73
2023/02/28 11:00:13;;;;;;;5.90;2.58;;;4.50;95.80;;;;;;4993701;28;20529;-73
2023/02/28 11:02:46;;;;;;;2.45;2.25;;;4.50;95.70;;;;;;5008522;28;20628;-73
2023/02/28 11:05:33;;;;;;;2.85;2.35;;;4.50;95.60;;;;;;5008693;28;20171;-73
2023/02/28 11:08:17;;;;;;;3.22;2.58;;;4.50;95.60;;;;;;5008462;28;20221;-73
2023/02/28 11:10:55;;;;;;;4.35;2.22;;;4.60;95.40;;;;;;5027818;28;20169;-73
2023/02/28 11:13:25;;;;;;;3.13;2.40;;;4.60;95.30;;;;;;5011751;28;20256;-73
2023/02/28 11:15:57;;;;;;;2.10;1.90;;;4.60;95.40;;;;;;5011641;28;20205;-73
2023/02/28 11:18:26;;;;;;;6.88;2.35;;;4.60;95.20;;;;;;5011965;28;20206;-73
2023/02/28 11:20:58;;;;;;;2.65;2.20;;;4.60;95.00;;;;;;5011857;28;20200;-73
2023/02/28 11:23:34;;;;;;;3.65;2.35;;;4.60;94.90;;;;;;5013539;28;20212;-73
2023/02/28 11:26:02;;;;;;;3.25;2.00;;;4.70;94.90;;;;;;4991336;28;20201;-73
2023/02/28 11:28:28;;;;;;;3.45;2.00;;;4.60;94.70;;;;;;4991633;28;20285;-72
2023/02/28 11:31:22;;;;;;;2.67;2.10;;;4.70;94.80;;;;;;4992079;28;20175;-72
2023/02/28 11:33:50;;;;;;;3.30;3.00;;;4.70;94.70;;;;;;4992406;28;20222;-73
2023/02/28 11:36:27;;;;;;;2.10;1.90;;;4.70;94.70;;;;;;5008161;28;20191;-73
2023/02/28 11:39:05;;;;;;;3.30;2.00;;;4.70;94.70;;;;;;5014448;28;20682;-73
2023/02/28 11:42:12;;;;;;;2.88;2.20;;;4.70;94.80;;;;;;4993646;28;20347;-72
2023/02/28 11:45:22;;;;;;;3.75;1.98;;;4.70;94.80;;;;;;5008222;28;20175;-73
2023/02/28 11:48:03;;;;;;;2.97;1.95;;;4.70;94.80;;;;;;4992468;28;20268;-72
2023/02/28 11:50:59;;;;;;;3.28;2.20;;;4.80;94.80;;;;;;4991887;28;20189;-72
2023/02/28 11:53:35;;;;;;;2.50;2.30;;;4.80;94.80;;;;;;5008075;28;20743;-72
2023/02/28 11:56:12;;;;;;;2.58;2.20;;;4.80;94.80;;;;;;4999132;28;20178;-73
2023/02/28 11:58:47;;;;;;;2.40;2.20;;;4.80;94.70;;;;;;5012041;28;20284;-73
2023/02/28 12:01:38;;;;;;;3.20;2.60;;;4.80;94.60;;;;;;5011258;28;20196;-73
2023/02/28 12:04:22;;;;;;;3.00;1.92;;;4.90;94.60;;;;;;4974888;28;20194;-73
2023/02/28 12:07:20;;;;;;;3.13;2.08;;;4.90;94.60;;;;;;4992817;28;20277;-73
2023/02/28 12:10:00;;;;;;;3.25;2.00;;;4.90;94.60;;;;;;5017134;28;20171;-72
2023/02/28 12:12:38;;;;;;;2.80;2.03;;;4.90;94.60;;;;;;5011081;28;20166;-73
2023/02/28 12:15:25;;;;;;;2.53;2.15;;;4.90;94.60;;;;;;5010074;28;20189;-73
2023/02/28 12:17:59;;;;;;;3.15;2.20;;;4.90;94.60;;;;;;5010834;28;20209;-73
2023/02/28 12:20:37;;;;;;;2.25;2.05;;;5.00;94.70;;;;;;5011142;28;20285;-73
2023/02/28 12:23:36;;;;;;;2.90;2.10;;;5.00;94.70;;;;;;5012542;28;20172;-73
2023/02/28 12:26:17;;;;;;;3.42;2.38;;;5.00;94.70;;;;;;5010492;28;20660;-73
2023/02/28 12:28:54;;;;;;;3.53;2.30;;;5.00;94.80;;;;;;5014844;28;20267;-73
2023/02/28 12:31:31;;;;;;;2.08;1.88;;;5.00;94.80;;;;;;5015975;28;20620;-73
2023/02/28 12:34:03;;;;;;;2.75;2.40;;;5.00;94.80;;;;;;5015020;28;20185;-72
2023/02/28 12:36:34;;;;;;;2.33;2.05;;;5.00;94.80;;;;;;5014849;28;20170;-73
2023/02/28 12:39:00;;;;;;;2.65;2.08;;;5.10;94.80;;;;;;5014397;28;20189;-73
2023/02/28 12:41:36;;;;;;;3.10;2.00;;;5.00;94.70;;;;;;5014638;28;20178;-73
2023/02/28 12:44:14;;;;;;;5.43;2.15;;;5.10;94.80;;;;;;5014469;28;20183;-73
2023/02/28 12:46:46;;;;;;;3.10;2.25;;;5.10;94.80;;;;;;4994692;28;20306;-73
2023/02/28 12:49:41;;;;;;;6.60;2.47;;;5.10;94.80;;;;;;4996281;28;20233;-73
2023/02/28 12:52:12;;;;;;;3.00;2.33;;;5.10;94.70;;;;;;4994325;28;20186;-72
2023/02/28 12:54:48;;;;;;;2.30;2.10;;;5.10;94.70;;;;;;4995025;28;20183;-73
2023/02/28 12:57:43;;;;;;;5.03;3.35;;;5.10;94.70;;;;;;4995958;28;20205;-72
2023/02/28 13:00:21;;;;;;;3.17;1.92;;;5.20;94.70;;;;;;4992323;28;20583;-73
2023/02/28 13:02:59;;;;;;;2.63;2.35;;;5.20;94.60;;;;;;5015550;28;20198;-73
2023/02/28 13:06:10;;;;;;;2.40;2.20;;;5.20;94.40;;;;;;5014441;28;20177;-73
2023/02/28 13:08:48;;;;;;;2.45;2.20;;;5.20;94.40;;;;;;5014153;28;20206;-73
2023/02/28 13:11:25;;;;;;;2.88;2.50;;;5.20;94.40;;;;;;5015195;28;20170;-73
2023/02/28 13:14:06;;;;;;;5.50;2.80;;;5.20;94.30;;;;;;5030323;28;20265;-73
2023/02/28 13:16:51;;;;;;;3.53;2.95;;;5.20;94.30;;;;;;5013976;28;20239;-73
2023/02/28 13:19:20;;;;;;;2.25;2.05;;;5.30;94.30;;;;;;5015134;28;20567;-73
2023/02/28 13:21:48;;;;;;;2.75;2.35;;;5.30;94.30;;;;;;5013585;28;20171;-73
2023/02/28 13:24:44;;;;;;;2.70;2.20;;;5.30;94.20;;;;;;4994427;28;20721;-72
2023/02/28 13:27:15;;;;;;;3.50;2.40;;;5.30;94.20;;;;;;4994040;28;20708;-72